createdAt,value
2023-03-13T00:01:34.720Z,97780.03
2023-03-13T00:03:39.299Z,97773.09
2023-03-13T00:05:43.839Z,97763.59
2023-03-13T00:07:50.963Z,97765.34
2023-03-13T00:09:55.968Z,97751.41
2023-03-13T00:12:00.486Z,97755.75
2023-03-13T00:14:06.024Z,97744.41
2023-03-13T00:16:11.651Z,97737.47
2023-03-13T00:18:16.276Z,97734.03
2023-03-13T00:20:21.056Z,97742.50
2023-03-13T00:22:25.592Z,97739.97
2023-03-13T00:24:35.042Z,97734.03
2023-03-13T00:26:39.818Z,97732.13
2023-03-13T00:28:46.041Z,97733.88
2023-03-13T00:30:50.795Z,97726.00
2023-03-13T00:32:55.600Z,97726.88
2023-03-13T00:35:00.229Z,97726.81
2023-03-13T00:37:04.749Z,97727.59
2023-03-13T00:39:10.077Z,97726.81
2023-03-13T00:41:18.070Z,97718.09
2023-03-13T00:43:22.651Z,97708.56
2023-03-13T00:45:27.189Z,97725.03
2023-03-13T00:47:31.865Z,97718.03
2023-03-13T00:49:36.393Z,97719.72
2023-03-13T00:51:41.003Z,97731.00
2023-03-13T00:53:45.900Z,97727.50
2023-03-13T00:55:57.316Z,97718.03
2023-03-13T00:58:04.545Z,97731.94
2023-03-13T01:00:09.901Z,97723.28
2023-03-13T01:02:14.615Z,97719.16
2023-03-13T01:04:19.272Z,97721.78
2023-03-13T01:06:24.941Z,97720.13
2023-03-13T01:08:30.093Z,97700.19
2023-03-13T01:10:34.633Z,97695.84
2023-03-13T01:12:39.216Z,97693.31
2023-03-13T01:14:46.344Z,97696.84
2023-03-13T01:16:50.965Z,97709.69
2023-03-13T01:18:56.353Z,97704.56
2023-03-13T01:21:00.963Z,97688.13
2023-03-13T01:23:05.541Z,97697.53
2023-03-13T01:25:10.991Z,97689.75
2023-03-13T01:27:15.470Z,97687.22
2023-03-13T01:29:20.483Z,97684.72
2023-03-13T01:31:28.910Z,97682.16
2023-03-13T01:33:33.608Z,97676.22
2023-03-13T01:35:38.205Z,97678.09
2023-03-13T01:37:42.997Z,97671.22
2023-03-13T01:39:47.611Z,97672.13
2023-03-13T01:41:52.430Z,97659.16
2023-03-13T01:43:58.295Z,97654.72
2023-03-13T01:46:14.036Z,97662.50
2023-03-13T01:48:32.496Z,97662.66
2023-03-13T01:50:37.048Z,97660.75
2023-03-13T01:52:52.665Z,97661.75
2023-03-13T01:55:07.911Z,97655.50
2023-03-13T01:57:16.438Z,97652.78
2023-03-13T01:59:23.346Z,97644.16
2023-03-13T02:01:29.585Z,97648.41
2023-03-13T02:03:37.751Z,97645.69
2023-03-13T02:05:42.770Z,97648.13
2023-03-13T02:07:50.146Z,97641.13
2023-03-13T02:09:56.179Z,97640.28
2023-03-13T02:12:03.863Z,97637.69
2023-03-13T02:14:08.518Z,97635.16
2023-03-13T02:16:13.870Z,97629.06
2023-03-13T02:18:18.660Z,97629.13
2023-03-13T02:20:26.953Z,97616.16
2023-03-13T02:22:36.419Z,97616.97
2023-03-13T02:24:46.045Z,97609.28
2023-03-13T02:26:53.174Z,97608.66
2023-03-13T02:28:57.780Z,97612.84
2023-03-13T02:31:03.123Z,97612.44
2023-03-13T02:33:08.463Z,97612.38
2023-03-13T02:35:14.111Z,97611.44
2023-03-13T02:37:20.319Z,97603.66
2023-03-13T02:39:26.295Z,97609.84
2023-03-13T02:41:31.694Z,97598.59
2023-03-13T02:43:40.826Z,97596.78
2023-03-13T02:45:45.483Z,97596.66
2023-03-13T02:47:50.177Z,97587.97
2023-03-13T02:49:54.857Z,97592.28
2023-03-13T02:52:01.135Z,97587.03
2023-03-13T02:54:09.621Z,97581.00
2023-03-13T02:56:15.350Z,97581.75
2023-03-13T02:58:20.457Z,97577.59
2023-03-13T03:00:28.218Z,97572.44
2023-03-13T03:02:33.343Z,97577.69
2023-03-13T03:04:37.950Z,97578.72
2023-03-13T03:06:42.560Z,97579.53
2023-03-13T03:08:47.207Z,97579.69
2023-03-13T03:10:51.883Z,97579.59
2023-03-13T03:12:58.156Z,97568.66
2023-03-13T03:15:04.822Z,97581.50
2023-03-13T03:17:13.262Z,97575.38
2023-03-13T03:19:18.000Z,97565.25
2023-03-13T03:21:23.951Z,97568.56
2023-03-13T03:23:29.577Z,97566.06
2023-03-13T03:25:34.161Z,97573.16
2023-03-13T03:27:39.282Z,97565.25
2023-03-13T03:29:45.876Z,97565.16
2023-03-13T03:31:50.527Z,97578.91
2023-03-13T03:33:57.732Z,97564.25
2023-03-13T03:36:02.869Z,97564.25
2023-03-13T03:38:08.346Z,97569.50
2023-03-13T03:40:14.504Z,97561.56
2023-03-13T03:42:20.238Z,97575.38
2023-03-13T03:44:24.939Z,97567.59
2023-03-13T03:46:32.877Z,97563.00
2023-03-13T03:48:37.657Z,97556.09
2023-03-13T03:50:46.900Z,97563.00
2023-03-13T03:52:53.027Z,97553.31
2023-03-13T03:54:57.734Z,97542.78
2023-03-13T03:57:03.221Z,97537.72
2023-03-13T03:59:07.966Z,97536.31
2023-03-13T04:01:19.446Z,97534.44
2023-03-13T04:03:24.317Z,97535.34
2023-03-13T04:05:29.410Z,97530.00
2023-03-13T04:07:36.540Z,97529.31
2023-03-13T04:09:41.321Z,97527.41
2023-03-13T04:11:48.719Z,97526.50
2023-03-13T04:13:53.565Z,97513.59
2023-03-13T04:15:58.106Z,97517.94
2023-03-13T04:18:02.736Z,97506.72
2023-03-13T04:20:06.388Z,97498.84
2023-03-13T04:22:11.031Z,97504.13
2023-03-13T04:24:22.973Z,97496.19
2023-03-13T04:26:27.900Z,97495.41
2023-03-13T04:28:34.073Z,97489.19
2023-03-13T04:30:40.502Z,97494.16
2023-03-13T04:33:04.044Z,97487.13
2023-03-13T04:35:28.570Z,97476.66
2023-03-13T04:37:46.172Z,97471.31
2023-03-13T04:40:25.650Z,97478.22
2023-03-13T04:42:42.797Z,97485.00
2023-03-13T04:45:14.545Z,97492.50
2023-03-13T04:47:29.498Z,97479.44
2023-03-13T04:49:57.212Z,97468.00
2023-03-13T04:52:17.239Z,97467.75
2023-03-13T04:54:38.398Z,97472.94
2023-03-13T04:57:19.330Z,97469.34
2023-03-13T04:59:50.053Z,97478.91
2023-03-13T05:02:04.366Z,97477.25
2023-03-13T05:04:47.125Z,97472.63
2023-03-13T05:07:22.874Z,97480.22
2023-03-13T05:10:03.136Z,97471.59
2023-03-13T05:12:42.233Z,97472.34
2023-03-13T05:14:56.546Z,97471.34
2023-03-13T05:17:23.981Z,97464.41
2023-03-13T05:19:28.518Z,97465.25
2023-03-13T05:21:58.785Z,97459.38
2023-03-13T05:24:27.421Z,97452.31
2023-03-13T05:26:45.241Z,97445.53
2023-03-13T05:29:18.483Z,97447.91
2023-03-13T05:31:41.410Z,97433.25
2023-03-13T05:33:51.645Z,97436.69
2023-03-13T05:36:11.417Z,97441.03
2023-03-13T05:38:21.920Z,97423.59
2023-03-13T05:40:42.929Z,97431.53
2023-03-13T05:43:11.782Z,97423.91
2023-03-13T05:45:44.868Z,97427.19
2023-03-13T05:48:25.077Z,97421.16
2023-03-13T05:51:00.127Z,97417.56
2023-03-13T05:53:40.224Z,97419.84
2023-03-13T05:55:56.013Z,97422.38
2023-03-13T05:58:19.279Z,97409.06
2023-03-13T06:00:49.788Z,97415.78
2023-03-13T06:03:14.472Z,97412.94
2023-03-13T06:05:22.340Z,97418.81
2023-03-13T06:07:27.089Z,97402.22
2023-03-13T06:09:31.781Z,97416.84
2023-03-13T06:11:36.950Z,97412.53
2023-03-13T06:13:42.953Z,97407.22
2023-03-13T06:16:00.901Z,97408.63
2023-03-13T06:18:18.847Z,97406.72
2023-03-13T06:20:23.467Z,97403.94
2023-03-13T06:22:28.074Z,97400.59
2023-03-13T06:24:32.713Z,97407.28
2023-03-13T06:26:37.252Z,97409.81
2023-03-13T06:28:41.885Z,97412.94
2023-03-13T06:30:46.445Z,97412.03
2023-03-13T06:32:53.738Z,97411.16
2023-03-13T06:34:58.310Z,97417.13
2023-03-13T06:37:02.910Z,97413.09
2023-03-13T06:39:08.330Z,97411.44
2023-03-13T06:41:13.065Z,97411.09
2023-03-13T06:43:17.601Z,97413.53
2023-03-13T06:45:22.283Z,97403.63
2023-03-13T06:47:26.846Z,97400.97
2023-03-13T06:49:34.054Z,97398.97
2023-03-13T06:51:38.715Z,97394.59
2023-03-13T06:53:43.327Z,97393.50
2023-03-13T06:55:49.229Z,97390.81
2023-03-13T06:57:54.207Z,97387.28
2023-03-13T06:59:58.725Z,97387.38
2023-03-13T07:02:03.262Z,97384.47
2023-03-13T07:04:08.174Z,97385.31
2023-03-13T07:06:15.409Z,97387.75
2023-03-13T07:08:19.934Z,97386.75
2023-03-13T07:10:25.186Z,97386.66
2023-03-13T07:12:29.760Z,97381.44
2023-03-13T07:14:34.302Z,97381.28
2023-03-13T07:16:38.985Z,97374.81
2023-03-13T07:18:44.983Z,97379.75
2023-03-13T07:20:55.099Z,97382.34
2023-03-13T07:23:02.258Z,97381.16
2023-03-13T07:25:07.254Z,97381.69
2023-03-13T07:27:11.871Z,97384.66
2023-03-13T07:29:16.397Z,97387.03
2023-03-13T07:31:21.895Z,97386.03
2023-03-13T07:33:26.491Z,97388.19
2023-03-13T07:36:44.878Z,97380.88
2023-03-13T07:38:51.206Z,97376.88
2023-03-13T07:40:57.631Z,97370.50
2023-03-13T07:43:02.411Z,97375.22
2023-03-13T07:45:08.720Z,97368.09
2023-03-13T07:47:13.632Z,97370.41
2023-03-13T07:49:18.478Z,97364.19
2023-03-13T07:51:42.207Z,97358.63
2023-03-13T07:53:50.658Z,97352.19
2023-03-13T07:56:00.881Z,97351.66
2023-03-13T07:58:05.692Z,97341.88
2023-03-13T08:00:16.624Z,97339.09
2023-03-13T08:02:21.496Z,97335.00
2023-03-13T08:04:26.683Z,97327.75
2023-03-13T08:06:35.628Z,97326.13
2023-03-13T08:08:41.555Z,97326.34
2023-03-13T08:10:48.921Z,97327.72
2023-03-13T08:12:53.784Z,97328.19
2023-03-13T08:14:58.790Z,97334.81
2023-03-13T08:17:03.753Z,97325.97
2023-03-13T08:19:08.620Z,97324.00
2023-03-13T08:21:15.284Z,97331.72
2023-03-13T08:23:20.141Z,97322.31
2023-03-13T08:25:24.972Z,97320.72
2023-03-13T08:27:33.102Z,97316.13
2023-03-13T08:29:38.051Z,97315.84
2023-03-13T08:31:47.671Z,97313.56
2023-03-13T08:33:52.890Z,97321.66
2023-03-13T08:35:57.404Z,97313.69
2023-03-13T08:38:02.778Z,97318.38
2023-03-13T08:40:11.452Z,97317.81
2023-03-13T08:42:16.621Z,97309.66
2023-03-13T08:44:23.725Z,97313.00
2023-03-13T08:46:28.929Z,97310.91
2023-03-13T08:48:33.509Z,97313.31
2023-03-13T08:50:38.291Z,97318.53
2023-03-13T08:52:43.090Z,97305.63
2023-03-13T08:54:47.890Z,97300.94
2023-03-13T08:56:52.703Z,97301.09
2023-03-13T08:58:59.068Z,97297.03
2023-03-13T09:01:09.155Z,97302.38
2023-03-13T09:03:14.021Z,97299.34
2023-03-13T09:05:19.474Z,97301.66
2023-03-13T09:07:24.497Z,97302.38
2023-03-13T09:09:29.286Z,97306.38
2023-03-13T09:11:34.685Z,97300.63
2023-03-13T09:13:41.539Z,97306.91
2023-03-13T09:15:46.376Z,97297.72
2023-03-13T09:17:53.875Z,97288.00
2023-03-13T09:20:00.939Z,97286.09
2023-03-13T09:22:05.973Z,97289.22
2023-03-13T09:24:11.610Z,97287.84
2023-03-13T09:26:17.330Z,97283.34
2023-03-13T09:28:22.444Z,97284.34
2023-03-13T09:30:27.243Z,97282.63
2023-03-13T09:32:32.169Z,97281.81
2023-03-13T09:34:39.573Z,97271.00
2023-03-13T09:36:44.419Z,97266.91
2023-03-13T09:38:49.621Z,97275.22
2023-03-13T09:41:05.657Z,97277.97
2023-03-13T09:43:25.965Z,97275.50
2023-03-13T09:45:35.478Z,97256.63
2023-03-13T09:47:45.883Z,97269.41
2023-03-13T09:49:57.186Z,97263.16
2023-03-13T09:52:08.592Z,97276.66
2023-03-13T09:54:25.247Z,97257.09
2023-03-13T09:56:34.923Z,97255.47
2023-03-13T09:58:42.194Z,97258.78
2023-03-13T10:00:51.550Z,97249.34
2023-03-13T10:02:59.796Z,97256.94
2023-03-13T10:05:22.082Z,97273.84
2023-03-13T10:07:26.882Z,97278.03
2023-03-13T10:09:34.106Z,97272.13
2023-03-13T10:11:46.273Z,97266.38
2023-03-13T10:13:55.318Z,97269.44
2023-03-13T10:16:04.147Z,97259.63
2023-03-13T10:18:20.562Z,97272.03
2023-03-13T10:20:30.400Z,97264.63
2023-03-13T10:22:37.585Z,97271.63
2023-03-13T10:24:49.083Z,97277.75
2023-03-13T10:26:53.852Z,97275.63
2023-03-13T10:28:59.576Z,97276.59
2023-03-13T10:31:11.742Z,97272.19
2023-03-13T10:33:26.178Z,97282.50
2023-03-13T10:35:39.715Z,97277.88
2023-03-13T10:37:46.330Z,97292.91
2023-03-13T10:39:51.143Z,97278.25
2023-03-13T10:42:01.902Z,97283.81
2023-03-13T10:44:09.305Z,97286.22
2023-03-13T10:46:14.184Z,97281.31
2023-03-13T10:48:22.659Z,97273.34
2023-03-13T10:50:30.381Z,97274.06
2023-03-13T10:52:45.641Z,97269.00
2023-03-13T10:54:50.649Z,97280.53
2023-03-13T10:57:10.317Z,97276.47
2023-03-13T10:59:27.030Z,97282.97
2023-03-13T11:01:33.896Z,97274.06
2023-03-13T11:03:38.804Z,97280.06
2023-03-13T11:05:45.400Z,97268.72
2023-03-13T11:07:53.695Z,97260.63
2023-03-13T11:10:02.738Z,97266.50
2023-03-13T11:12:12.518Z,97258.31
2023-03-13T11:14:19.975Z,97246.75
2023-03-13T11:16:27.218Z,97231.19
2023-03-13T11:18:38.234Z,97232.38
2023-03-13T11:20:45.657Z,97223.16
2023-03-13T11:23:12.198Z,97225.78
2023-03-13T11:25:23.760Z,97211.25
2023-03-13T11:27:36.670Z,97220.06
2023-03-13T11:29:52.072Z,97201.69
2023-03-13T11:32:01.784Z,97211.00
2023-03-13T11:34:13.882Z,97208.50
2023-03-13T11:36:25.748Z,97198.25
2023-03-13T11:38:38.244Z,97197.91
2023-03-13T11:40:51.742Z,97193.84
2023-03-13T11:43:24.521Z,97200.41
2023-03-13T11:45:48.570Z,97194.69
2023-03-13T11:48:02.623Z,97208.88
2023-03-13T11:50:17.376Z,97208.16
2023-03-13T11:52:37.893Z,97213.16
2023-03-13T11:54:59.687Z,97212.31
2023-03-13T11:57:12.403Z,97209.59
2023-03-13T11:59:29.362Z,97209.81
2023-03-13T12:01:39.751Z,97207.91
2023-03-13T12:03:57.153Z,97201.34
2023-03-13T12:06:03.401Z,97202.56
2023-03-13T12:08:15.393Z,97191.09
2023-03-13T12:10:27.105Z,97190.88
2023-03-13T12:12:44.644Z,97185.03
2023-03-13T12:14:56.289Z,97189.66
2023-03-13T12:17:04.728Z,97175.34
2023-03-13T12:19:14.532Z,97166.88
2023-03-13T12:21:24.775Z,97166.63
2023-03-13T12:23:40.193Z,97159.84
2023-03-13T12:25:55.301Z,97147.75
2023-03-13T12:28:07.783Z,97144.38
2023-03-13T12:30:25.470Z,97133.78
2023-03-13T12:32:37.347Z,97129.34
2023-03-13T12:34:53.302Z,97125.97
2023-03-13T12:37:06.970Z,97113.63
2023-03-13T12:39:29.640Z,97121.06
2023-03-13T12:41:43.504Z,97119.78
2023-03-13T12:44:07.379Z,97097.34
2023-03-13T12:46:35.007Z,97097.56
2023-03-13T12:49:05.763Z,97085.72
2023-03-13T12:51:25.651Z,97069.44
2023-03-13T12:54:08.805Z,97076.81
2023-03-13T12:56:24.737Z,97057.75
2023-03-13T12:58:40.510Z,97049.34
2023-03-13T13:00:47.869Z,97053.38
2023-03-13T13:03:09.467Z,97047.75
2023-03-13T13:05:22.102Z,97048.88
2023-03-13T13:07:29.707Z,97040.78
2023-03-13T13:09:36.589Z,97035.03
2023-03-13T13:11:52.386Z,97022.53
2023-03-13T13:14:00.136Z,97017.56
2023-03-13T13:16:08.284Z,97010.94
2023-03-13T13:18:29.260Z,96998.78
2023-03-13T13:20:52.836Z,96991.88
2023-03-13T13:22:57.760Z,96996.84
2023-03-13T13:25:03.882Z,96991.31
2023-03-13T13:27:30.942Z,96982.59
2023-03-13T13:30:02.073Z,96976.66
2023-03-13T13:32:08.652Z,96982.56
2023-03-13T13:34:54.291Z,96986.19
2023-03-13T13:37:00.308Z,96967.38
2023-03-13T13:39:24.037Z,96970.84
2023-03-13T13:41:40.469Z,96962.66
2023-03-13T13:43:47.392Z,96949.22
2023-03-13T13:46:06.122Z,96956.28
2023-03-13T13:48:27.894Z,96949.78
2023-03-13T13:50:33.491Z,96945.66
2023-03-13T13:52:40.029Z,96948.00
2023-03-13T13:54:58.665Z,96946.47
2023-03-13T13:57:05.245Z,96933.47
2023-03-13T13:59:32.691Z,96928.19
2023-03-13T14:01:43.319Z,96913.09
2023-03-13T14:03:48.406Z,96897.72
2023-03-13T14:05:57.107Z,96907.56
2023-03-13T14:08:07.837Z,96901.16
2023-03-13T14:10:24.331Z,96906.97
2023-03-13T14:12:32.119Z,96887.97
2023-03-13T14:14:36.879Z,96890.75
2023-03-13T14:16:47.624Z,96886.56
2023-03-13T14:18:52.449Z,96879.59
2023-03-13T14:21:02.729Z,96879.31
2023-03-13T14:23:09.562Z,96879.28
2023-03-13T14:25:14.351Z,96865.66
2023-03-13T14:27:22.189Z,96865.22
2023-03-13T14:29:28.573Z,96860.94
2023-03-13T14:31:35.451Z,96862.72
2023-03-13T14:33:43.015Z,96853.41
2023-03-13T14:35:48.881Z,96847.03
2023-03-13T14:37:55.333Z,96853.13
2023-03-13T14:40:09.732Z,96840.25
2023-03-13T14:42:17.566Z,96835.97
2023-03-13T14:44:27.333Z,96838.31
2023-03-13T14:46:34.415Z,96831.63
2023-03-13T14:48:43.347Z,96826.81
2023-03-13T14:50:48.430Z,96820.78
2023-03-13T14:52:55.259Z,96813.50
2023-03-13T14:55:02.353Z,96812.50
2023-03-13T14:57:21.260Z,96812.97
2023-03-13T14:59:27.862Z,96801.22
2023-03-13T15:01:33.462Z,96798.34
2023-03-13T15:03:38.276Z,96786.91
2023-03-13T15:05:47.530Z,96789.28
2023-03-13T15:07:57.246Z,96781.16
2023-03-13T15:10:02.131Z,96772.31
2023-03-13T15:12:08.690Z,96767.13
2023-03-13T15:14:35.781Z,96755.47
2023-03-13T15:16:40.648Z,96756.50
2023-03-13T15:18:45.521Z,96745.28
2023-03-13T15:20:57.775Z,96731.84
2023-03-13T15:23:02.661Z,96719.97
2023-03-13T15:25:17.309Z,96712.38
2023-03-13T15:27:24.422Z,96710.84
2023-03-13T15:29:29.283Z,96703.25
2023-03-13T15:31:34.854Z,96705.19
2023-03-13T15:37:13.433Z,96699.84
2023-03-13T15:41:37.970Z,96680.59
2023-03-13T15:44:04.183Z,96676.53
2023-03-13T15:46:29.620Z,96668.28
2023-03-13T15:48:34.665Z,96671.72
2023-03-13T15:51:07.282Z,96662.72
2023-03-13T15:53:27.790Z,96661.44
2023-03-13T15:55:36.003Z,96652.84
2023-03-13T15:57:49.605Z,96642.78
2023-03-13T16:00:00.496Z,96642.22
2023-03-13T16:02:24.323Z,96630.63
2023-03-13T16:04:31.074Z,96616.56
2023-03-13T16:10:29.797Z,96607.00
2023-03-13T16:12:34.887Z,96606.59
2023-03-13T16:20:00.437Z,96590.72
2023-03-13T16:22:07.579Z,96583.56
2023-03-13T16:24:19.812Z,96580.09
2023-03-13T16:26:31.558Z,96572.50
2023-03-13T16:28:36.358Z,96575.13
2023-03-13T16:30:54.931Z,96576.78
2023-03-13T16:33:02.850Z,96578.88
2023-03-13T16:35:08.791Z,96561.75
2023-03-13T16:37:18.168Z,96559.44
2023-03-13T16:39:25.524Z,96547.25
2023-03-13T16:41:33.342Z,96543.78
2023-03-13T16:43:38.260Z,96543.25
2023-03-13T16:45:45.173Z,96545.34
2023-03-13T16:47:55.877Z,96546.47
2023-03-13T16:50:02.265Z,96545.94
2023-03-13T16:52:07.091Z,96528.78
2023-03-13T16:54:16.296Z,96537.13
2023-03-13T16:56:27.310Z,96535.47
2023-03-13T16:58:34.631Z,96543.09
2023-03-13T17:00:39.544Z,96535.78
2023-03-13T17:02:46.417Z,96526.38
2023-03-13T17:04:51.442Z,96531.09
2023-03-13T17:06:56.352Z,96529.59
2023-03-13T17:09:02.428Z,96534.44
2023-03-13T17:11:08.406Z,96534.03
2023-03-13T17:13:13.249Z,96528.81
2023-03-13T17:15:22.774Z,96529.41
2023-03-13T17:17:27.728Z,96520.16
2023-03-13T17:19:34.881Z,96519.75
2023-03-13T17:21:39.678Z,96514.09
2023-03-13T17:23:44.931Z,96511.47
2023-03-13T17:25:49.658Z,96513.97
2023-03-13T17:27:55.210Z,96511.94
2023-03-13T17:30:00.033Z,96504.63
2023-03-13T17:32:07.725Z,96505.72
2023-03-13T17:34:13.171Z,96493.72
2023-03-13T17:36:20.572Z,96492.34
2023-03-13T17:38:25.468Z,96498.00
2023-03-13T17:40:32.698Z,96493.03
2023-03-13T17:42:37.556Z,96481.31
2023-03-13T17:44:42.980Z,96487.53
2023-03-13T17:46:51.208Z,96483.38
2023-03-13T17:48:58.746Z,96481.59
2023-03-13T17:51:03.545Z,96465.31
2023-03-13T17:53:09.074Z,96466.00
2023-03-13T17:55:14.646Z,96459.78
2023-03-13T17:57:22.241Z,96469.44
2023-03-13T17:59:29.386Z,96462.41
2023-03-13T18:01:36.992Z,96461.13
2023-03-13T18:03:42.122Z,96459.50
2023-03-13T18:05:49.242Z,96459.38
2023-03-13T18:07:55.306Z,96451.22
2023-03-13T18:10:03.345Z,96447.66
2023-03-13T18:12:08.790Z,96447.09
2023-03-13T18:14:13.898Z,96442.09
2023-03-13T18:16:22.764Z,96436.72
2023-03-13T18:18:27.918Z,96437.41
2023-03-13T18:20:33.641Z,96428.28
2023-03-13T18:22:41.018Z,96414.34
2023-03-13T18:24:46.683Z,96425.81
2023-03-13T18:26:52.355Z,96426.94
2023-03-13T18:29:00.297Z,96414.78
2023-03-13T18:31:05.201Z,96406.94
2023-03-13T18:33:10.069Z,96391.47
2023-03-13T18:35:16.465Z,96395.22
2023-03-13T18:37:26.305Z,96379.06
2023-03-13T18:39:34.805Z,96372.16
2023-03-13T18:41:39.626Z,96364.72
2023-03-13T18:43:44.416Z,96359.59
2023-03-13T18:45:49.371Z,96348.28
2023-03-13T18:47:54.231Z,96348.56
2023-03-13T18:49:59.181Z,96345.81
2023-03-13T18:52:04.025Z,96341.00
2023-03-13T18:54:08.841Z,96341.16
2023-03-13T18:56:24.852Z,96331.91
2023-03-13T18:58:30.453Z,96317.81
2023-03-13T19:00:37.053Z,96323.19
2023-03-13T19:02:43.683Z,96301.09
2023-03-13T19:04:48.808Z,96288.28
2023-03-13T19:06:53.419Z,96273.13
2023-03-13T19:09:00.332Z,96256.88
2023-03-13T19:11:05.157Z,96249.97
2023-03-13T19:13:12.574Z,96247.34
2023-03-13T19:15:17.546Z,96399.50
2023-03-13T19:17:29.116Z,96498.06
2023-03-13T19:19:33.927Z,96476.38
2023-03-13T19:21:38.729Z,96462.75
2023-03-13T19:23:43.645Z,96452.03
2023-03-13T19:25:48.384Z,96477.50
2023-03-13T19:27:53.228Z,96480.47
2023-03-13T19:30:01.299Z,96484.75
2023-03-13T19:32:09.244Z,96505.22
2023-03-13T19:34:14.533Z,96498.41
2023-03-13T19:36:21.902Z,96512.13
2023-03-13T19:38:26.760Z,96504.31
2023-03-13T19:40:34.159Z,96528.75
2023-03-13T19:42:39.069Z,96590.72
2023-03-13T19:44:44.435Z,96619.38
2023-03-13T19:46:51.696Z,96580.91
2023-03-13T19:48:57.870Z,96522.88
2023-03-13T19:51:02.633Z,96526.91
2023-03-13T19:53:07.606Z,96554.31
2023-03-13T19:55:12.926Z,96583.03
2023-03-13T19:57:17.746Z,96571.53
2023-03-13T19:59:24.093Z,96556.44
2023-03-13T20:01:29.690Z,96550.50
2023-03-13T20:03:37.102Z,96538.41
2023-03-13T20:05:41.964Z,96520.72
2023-03-13T20:07:48.406Z,96524.41
2023-03-13T20:09:53.189Z,96554.06
2023-03-13T20:11:58.050Z,96612.09
2023-03-13T20:14:02.830Z,96651.69
2023-03-13T20:16:08.330Z,96687.66
2023-03-13T20:18:13.392Z,96743.94
2023-03-13T20:20:21.419Z,96780.19
2023-03-13T20:22:26.226Z,96826.81
2023-03-13T20:24:30.979Z,96844.31
2023-03-13T20:26:39.046Z,96846.72
2023-03-13T20:28:45.408Z,96866.84
2023-03-13T20:30:51.945Z,96810.16
2023-03-13T20:32:59.952Z,96777.69
2023-03-13T20:35:10.423Z,96754.84
2023-03-13T20:37:17.896Z,96763.06
2023-03-13T20:39:22.754Z,96798.53
2023-03-13T20:41:31.493Z,96784.84
2023-03-13T20:43:37.577Z,96759.28
2023-03-13T20:45:42.480Z,96721.13
2023-03-13T20:47:47.528Z,96673.91
2023-03-13T20:49:52.414Z,96616.69
2023-03-13T20:51:57.254Z,96639.03
2023-03-13T20:54:04.771Z,96677.81
2023-03-13T20:56:11.630Z,96713.88
2023-03-13T20:58:16.593Z,96710.69
2023-03-13T21:00:23.446Z,96702.66
2023-03-13T21:02:28.233Z,96715.78
2023-03-13T21:04:33.291Z,96719.63
2023-03-13T21:06:37.923Z,96754.88
2023-03-13T21:08:42.977Z,96754.44
2023-03-13T21:10:50.403Z,96766.06
2023-03-13T21:12:55.304Z,96779.53
2023-03-13T21:15:00.115Z,96785.94
2023-03-13T21:17:05.325Z,96799.38
2023-03-13T21:19:09.846Z,96801.28
2023-03-13T21:21:18.749Z,96822.25
2023-03-13T21:23:23.655Z,96823.53
2023-03-13T21:25:28.691Z,96830.63
2023-03-13T21:27:36.788Z,96826.13
2023-03-13T21:29:43.995Z,96816.31
2023-03-13T21:31:49.583Z,96820.19
2023-03-13T21:33:54.469Z,96852.16
2023-03-13T21:35:59.297Z,96885.94
2023-03-13T21:38:04.201Z,96912.91
2023-03-13T21:40:11.493Z,96924.19
2023-03-13T21:42:18.003Z,96903.81
2023-03-13T21:44:27.387Z,96911.94
2023-03-13T21:46:33.257Z,96920.88
2023-03-13T21:48:38.189Z,96927.19
2023-03-13T21:50:43.043Z,96918.59
2023-03-13T21:52:47.866Z,96920.16
2023-03-13T21:54:52.916Z,96921.75
2023-03-13T21:56:57.863Z,96925.31
2023-03-13T21:59:02.794Z,96917.31
2023-03-13T22:01:10.707Z,96880.19
2023-03-13T22:03:15.871Z,96867.56
2023-03-13T22:05:20.844Z,96868.88
2023-03-13T22:07:26.312Z,96859.19
2023-03-13T22:09:33.108Z,96818.69
2023-03-13T22:11:38.139Z,96774.44
2023-03-13T22:13:43.025Z,96761.13
2023-03-13T22:15:48.133Z,96740.50
2023-03-13T22:17:55.572Z,96771.97
2023-03-13T22:20:00.401Z,96778.22
2023-03-13T22:22:05.361Z,96791.50
2023-03-13T22:24:10.500Z,96815.59
2023-03-13T22:26:16.877Z,96826.00
2023-03-13T22:28:21.745Z,96844.41
2023-03-13T22:30:26.542Z,96844.91
2023-03-13T22:32:33.338Z,96844.44
2023-03-13T22:34:44.984Z,96851.31
2023-03-13T22:36:49.859Z,96862.84
2023-03-13T22:38:54.720Z,96865.47
2023-03-13T22:41:01.192Z,96855.25
2023-03-13T22:43:06.035Z,96876.16
2023-03-13T22:45:12.376Z,96852.50
2023-03-13T22:47:20.143Z,96829.09
2023-03-13T22:49:24.969Z,96807.94
2023-03-13T22:51:35.247Z,96735.69
2023-03-13T22:53:42.394Z,96693.19
2023-03-13T22:55:47.204Z,96678.59
2023-03-13T22:57:52.049Z,96662.56
2023-03-13T22:59:58.555Z,96656.81
2023-03-13T23:02:03.386Z,96652.66
2023-03-13T23:04:08.298Z,96643.28
2023-03-13T23:06:18.795Z,96638.22
2023-03-13T23:08:26.225Z,96636.72
2023-03-13T23:10:31.216Z,96634.31
2023-03-13T23:12:36.253Z,96623.63
2023-03-13T23:14:41.056Z,96617.69
2023-03-13T23:16:46.047Z,96617.38
2023-03-13T23:18:51.619Z,96615.63
2023-03-13T23:20:56.802Z,96624.78
2023-03-13T23:23:01.843Z,96634.72
2023-03-13T23:25:10.311Z,96639.28
2023-03-13T23:27:15.127Z,96640.22
2023-03-13T23:29:20.024Z,96640.75
2023-03-13T23:31:25.320Z,96661.53
2023-03-13T23:33:29.996Z,96646.13
2023-03-13T23:35:35.514Z,96648.53
2023-03-13T23:37:40.078Z,96654.59
2023-03-13T23:39:45.152Z,96662.69
2023-03-13T23:41:52.631Z,96673.41
2023-03-13T23:43:57.442Z,96673.41
2023-03-13T23:46:02.242Z,96665.50
2023-03-13T23:48:07.596Z,96669.78
2023-03-13T23:50:13.573Z,96675.06
2023-03-13T23:52:18.395Z,96683.81
2023-03-13T23:54:23.348Z,96694.22
2023-03-13T23:56:29.702Z,96694.41
2023-03-13T23:58:37.516Z,96702.75
